首页
METAR-TAF:

METAR-TAF

机场 :

Port Hardy, 不列颠哥伦比亚, 加拿大

纬度: 50-41N, 经度: 127-22W, 海拔: 22米

当前天气观测

该预报发布于47分钟前的01:00 UTC
风速8节,风向西北
温度 12°C
湿度 67%
气压 1018 hPa
能見度: 32.2公里
多云层高于5700英尺
多云层高于7700英尺
多云层高于20000英尺

METAR: CYZT 140100Z 32008KT 20SM BKN057 BKN077 BKN200 12/06 A3006 RMK SC5AC2CI1 CI TR SLP182

时间: 18:47 (01:47 UTC)

预报

该预报发布于1小时和7分钟前的00:40 UTC
预报有效从14日的 01点(UTC)到 14日的 13点(UTC)
风速10节,风向北转西北
能見度: 10公里
散云层高于6000英尺
多云层高于8000英尺
成为
从 14日的 03点(UTC)到 14日的 05点(UTC)
风速3节,风向多变
从 14日的 0800点(UTC)
风速3节,风向多变
能見度: 10公里
阴天层高于3000英尺
短暂存在
从 14日的 08点(UTC)到 14日的 13点(UTC)
能見度: 8.0公里
阴天层高于2000英尺
小阵雨, 轻雾

TAF: CYZT 140040Z 1401/1413 33010KT P6SM SCT060 BKN080 BECMG 1403/1405 VRB03KT FM140800 VRB03KT P6SM OVC030 TEMPO 1408/1413 5SM -SHRA BR OVC020 RMK NXT FCST BY 140700Z

超过4000个机场的气象观测和天气预报(METAR&TAF报告)。

可查询的气象台以黄色和红色小点在地图上表示。

将鼠标移到小点上方,可查看气象台名称。

然后点击查看天气观测和预报。

如需切换地图:点击带黑十字的绿色按钮放大地图;点击带横线的绿色按钮缩小地图;或者点击绿色箭头查看邻近地区的地图。


METAR-TAF: